Antes Fort, Pennsylvania
Current Conditions -  °F | °C
As of 5:54 AM on Friday 19 Dec 2014 (Local Time) from KIPT Reporting Station
Overcast Overcast  
Wind Chill: -3°   Ceiling: 3300
Heat Index:   Visibility: 10mi
Dew Point: -4°   Wind: 10mph
Humidity: 67%   Direction: 290°WNW
Pressure: 30.04"   Gusts: 20mph
Location:  41.19°N, 77.22°W
Report Text: KIPT 191054Z AUTO 29009G17KT 10SM OVC033 01/M04 A3004 RMK AO2 SLP178 T00111044
Loading
Personal Weather Stations






























Interactive Weather Map New forecast layout! Learn more

10-Day Weather Forecast

Advertisements
Track Severe Weather on mobile